sensor_id;sensor_type;location;lat;lon;timestamp;P1;durP1;ratioP1;P2;durP2;ratioP2
77076;SDS011;66003;52.286;104.306;2023-05-02T00:00:45;9.93;;;6.40;;
77076;SDS011;66003;52.286;104.306;2023-05-02T00:03:12;13.65;;;6.10;;
77076;SDS011;66003;52.286;104.306;2023-05-02T00:05:39;9.88;;;5.15;;
77076;SDS011;66003;52.286;104.306;2023-05-02T00:08:05;8.50;;;5.57;;
77076;SDS011;66003;52.286;104.306;2023-05-02T00:10:32;11.88;;;5.22;;
77076;SDS011;66003;52.286;104.306;2023-05-02T00:12:59;9.70;;;5.85;;
77076;SDS011;66003;52.286;104.306;2023-05-02T00:15:25;9.05;;;5.68;;
77076;SDS011;66003;52.286;104.306;2023-05-02T00:17:54;9.82;;;6.30;;
77076;SDS011;66003;52.286;104.306;2023-05-02T00:20:20;11.60;;;4.53;;
77076;SDS011;66003;52.286;104.306;2023-05-02T00:22:46;11.80;;;5.95;;
77076;SDS011;66003;52.286;104.306;2023-05-02T00:25:13;7.50;;;4.38;;
77076;SDS011;66003;52.286;104.306;2023-05-02T00:27:42;7.13;;;4.78;;
77076;SDS011;66003;52.286;104.306;2023-05-02T00:30:11;7.63;;;4.95;;
77076;SDS011;66003;52.286;104.306;2023-05-02T00:32:38;12.15;;;5.75;;
77076;SDS011;66003;52.286;104.306;2023-05-02T00:35:05;9.85;;;5.45;;
77076;SDS011;66003;52.286;104.306;2023-05-02T00:37:31;6.80;;;5.25;;
77076;SDS011;66003;52.286;104.306;2023-05-02T00:39:58;7.78;;;5.57;;
77076;SDS011;66003;52.286;104.306;2023-05-02T00:42:24;10.70;;;5.03;;
77076;SDS011;66003;52.286;104.306;2023-05-02T00:44:50;8.85;;;5.43;;
77076;SDS011;66003;52.286;104.306;2023-05-02T00:47:16;7.82;;;5.28;;
77076;SDS011;66003;52.286;104.306;2023-05-02T00:49:42;9.35;;;5.30;;
77076;SDS011;66003;52.286;104.306;2023-05-02T00:52:09;8.57;;;4.47;;
77076;SDS011;66003;52.286;104.306;2023-05-02T00:54:38;7.05;;;5.07;;
77076;SDS011;66003;52.286;104.306;2023-05-02T00:57:04;7.82;;;4.63;;
77076;SDS011;66003;52.286;104.306;2023-05-02T00:59:31;7.50;;;4.45;;
77076;SDS011;66003;52.286;104.306;2023-05-02T01:13:31;7.60;;;4.50;;
77076;SDS011;66003;52.286;104.306;2023-05-02T01:15:58;6.53;;;4.55;;
77076;SDS011;66003;52.286;104.306;2023-05-02T01:18:29;4.32;;;3.88;;
77076;SDS011;66003;52.286;104.306;2023-05-02T01:21:02;6.70;;;3.97;;
77076;SDS011;66003;52.286;104.306;2023-05-02T01:26:28;6.88;;;3.72;;
77076;SDS011;66003;52.286;104.306;2023-05-02T01:29:07;5.20;;;3.70;;
77076;SDS011;66003;52.286;104.306;2023-05-02T01:31:42;6.93;;;3.55;;
77076;SDS011;66003;52.286;104.306;2023-05-02T01:34:12;7.00;;;4.80;;
77076;SDS011;66003;52.286;104.306;2023-05-02T01:36:41;18.55;;;4.95;;
77076;SDS011;66003;52.286;104.306;2023-05-02T01:41:37;6.25;;;3.65;;
77076;SDS011;66003;52.286;104.306;2023-05-02T01:44:06;7.25;;;3.80;;
77076;SDS011;66003;52.286;104.306;2023-05-02T01:46:35;5.75;;;4.03;;
77076;SDS011;66003;52.286;104.306;2023-05-02T01:49:05;4.85;;;4.13;;
77076;SDS011;66003;52.286;104.306;2023-05-02T01:51:33;5.55;;;2.90;;
77076;SDS011;66003;52.286;104.306;2023-05-02T01:54:03;6.80;;;3.03;;
77076;SDS011;66003;52.286;104.306;2023-05-02T01:56:32;6.18;;;2.78;;
77076;SDS011;66003;52.286;104.306;2023-05-02T01:59:02;4.00;;;2.97;;
77076;SDS011;66003;52.286;104.306;2023-05-02T02:01:32;6.35;;;2.80;;
77076;SDS011;66003;52.286;104.306;2023-05-02T02:04:01;8.63;;;3.53;;
77076;SDS011;66003;52.286;104.306;2023-05-02T02:06:29;3.83;;;2.67;;
77076;SDS011;66003;52.286;104.306;2023-05-02T02:08:55;7.80;;;3.42;;
77076;SDS011;66003;52.286;104.306;2023-05-02T02:11:25;5.30;;;3.78;;
77076;SDS011;66003;52.286;104.306;2023-05-02T02:17:11;8.07;;;3.75;;
77076;SDS011;66003;52.286;104.306;2023-05-02T02:19:41;7.05;;;3.33;;
77076;SDS011;66003;52.286;104.306;2023-05-02T02:22:08;4.80;;;3.00;;
77076;SDS011;66003;52.286;104.306;2023-05-02T02:24:36;7.85;;;3.60;;
77076;SDS011;66003;52.286;104.306;2023-05-02T02:27:05;6.75;;;3.60;;
77076;SDS011;66003;52.286;104.306;2023-05-02T02:29:31;7.75;;;4.82;;
77076;SDS011;66003;52.286;104.306;2023-05-02T02:31:57;9.20;;;3.92;;
77076;SDS011;66003;52.286;104.306;2023-05-02T02:34:24;5.53;;;3.20;;
77076;SDS011;66003;52.286;104.306;2023-05-02T02:36:58;4.15;;;2.95;;
77076;SDS011;66003;52.286;104.306;2023-05-02T02:42:17;5.60;;;2.28;;
77076;SDS011;66003;52.286;104.306;2023-05-02T02:50:46;8.45;;;3.15;;
77076;SDS011;66003;52.286;104.306;2023-05-02T02:53:25;6.50;;;3.47;;
77076;SDS011;66003;52.286;104.306;2023-05-02T02:56:00;5.45;;;4.03;;
77076;SDS011;66003;52.286;104.306;2023-05-02T03:01:23;5.40;;;3.97;;
77076;SDS011;66003;52.286;104.306;2023-05-02T03:03:50;13.43;;;7.18;;
77076;SDS011;66003;52.286;104.306;2023-05-02T03:06:17;8.95;;;4.80;;
77076;SDS011;66003;52.286;104.306;2023-05-02T03:08:45;4.53;;;3.25;;
77076;SDS011;66003;52.286;104.306;2023-05-02T03:11:11;5.43;;;4.38;;
77076;SDS011;66003;52.286;104.306;2023-05-02T03:13:37;7.05;;;4.00;;
77076;SDS011;66003;52.286;104.306;2023-05-02T03:18:55;6.00;;;3.55;;
77076;SDS011;66003;52.286;104.306;2023-05-02T03:21:21;5.20;;;3.28;;
77076;SDS011;66003;52.286;104.306;2023-05-02T03:26:13;4.75;;;4.30;;
77076;SDS011;66003;52.286;104.306;2023-05-02T03:28:39;3.47;;;2.90;;
77076;SDS011;66003;52.286;104.306;2023-05-02T03:31:06;5.38;;;1.90;;
77076;SDS011;66003;52.286;104.306;2023-05-02T03:33:32;4.88;;;3.42;;
77076;SDS011;66003;52.286;104.306;2023-05-02T03:35:58;4.80;;;3.60;;
77076;SDS011;66003;52.286;104.306;2023-05-02T03:38:25;4.57;;;3.35;;
77076;SDS011;66003;52.286;104.306;2023-05-02T03:40:55;3.38;;;1.40;;
77076;SDS011;66003;52.286;104.306;2023-05-02T03:43:22;4.38;;;2.92;;
77076;SDS011;66003;52.286;104.306;2023-05-02T03:45:48;4.35;;;3.63;;
77076;SDS011;66003;52.286;104.306;2023-05-02T03:48:15;5.97;;;4.30;;
77076;SDS011;66003;52.286;104.306;2023-05-02T03:50:41;5.55;;;5.05;;
77076;SDS011;66003;52.286;104.306;2023-05-02T03:53:08;4.65;;;3.42;;
77076;SDS011;66003;52.286;104.306;2023-05-02T03:58:03;7.40;;;3.72;;
77076;SDS011;66003;52.286;104.306;2023-05-02T04:00:30;4.18;;;3.35;;
77076;SDS011;66003;52.286;104.306;2023-05-02T04:05:22;6.15;;;3.35;;
77076;SDS011;66003;52.286;104.306;2023-05-02T04:07:48;8.30;;;3.22;;
77076;SDS011;66003;52.286;104.306;2023-05-02T04:10:14;4.60;;;2.40;;
77076;SDS011;66003;52.286;104.306;2023-05-02T04:12:42;6.82;;;3.55;;
77076;SDS011;66003;52.286;104.306;2023-05-02T04:17:35;4.15;;;3.38;;
77076;SDS011;66003;52.286;104.306;2023-05-02T04:20:02;5.50;;;3.97;;
77076;SDS011;66003;52.286;104.306;2023-05-02T04:22:29;2.97;;;2.53;;
77076;SDS011;66003;52.286;104.306;2023-05-02T04:24:56;7.97;;;3.60;;
77076;SDS011;66003;52.286;104.306;2023-05-02T04:27:22;5.47;;;3.03;;
77076;SDS011;66003;52.286;104.306;2023-05-02T04:29:49;5.60;;;3.45;;
77076;SDS011;66003;52.286;104.306;2023-05-02T04:32:16;5.28;;;3.80;;
77076;SDS011;66003;52.286;104.306;2023-05-02T04:34:42;7.32;;;4.25;;
77076;SDS011;66003;52.286;104.306;2023-05-02T04:39:35;5.20;;;2.85;;
77076;SDS011;66003;52.286;104.306;2023-05-02T04:42:01;6.40;;;2.88;;
77076;SDS011;66003;52.286;104.306;2023-05-02T04:44:28;4.38;;;3.97;;
77076;SDS011;66003;52.286;104.306;2023-05-02T04:46:55;4.57;;;3.63;;
77076;SDS011;66003;52.286;104.306;2023-05-02T04:49:21;3.83;;;3.33;;
77076;SDS011;66003;52.286;104.306;2023-05-02T04:54:13;3.38;;;2.72;;
77076;SDS011;66003;52.286;104.306;2023-05-02T04:56:40;3.47;;;2.78;;
77076;SDS011;66003;52.286;104.306;2023-05-02T04:59:06;3.83;;;2.00;;
77076;SDS011;66003;52.286;104.306;2023-05-02T05:01:32;4.45;;;3.80;;
77076;SDS011;66003;52.286;104.306;2023-05-02T05:03:58;4.72;;;3.17;;
77076;SDS011;66003;52.286;104.306;2023-05-02T05:06:25;4.50;;;3.28;;
77076;SDS011;66003;52.286;104.306;2023-05-02T05:08:51;13.32;;;3.50;;
77076;SDS011;66003;52.286;104.306;2023-05-02T05:11:17;4.75;;;2.75;;
77076;SDS011;66003;52.286;104.306;2023-05-02T05:13:44;5.13;;;4.72;;
77076;SDS011;66003;52.286;104.306;2023-05-02T05:16:10;4.28;;;3.88;;
77076;SDS011;66003;52.286;104.306;2023-05-02T05:18:37;5.55;;;4.40;;
77076;SDS011;66003;52.286;104.306;2023-05-02T05:21:06;4.32;;;3.15;;
77076;SDS011;66003;52.286;104.306;2023-05-02T05:23:33;6.70;;;2.47;;
77076;SDS011;66003;52.286;104.306;2023-05-02T05:26:12;9.40;;;2.83;;
77076;SDS011;66003;52.286;104.306;2023-05-02T05:28:42;5.88;;;3.10;;
77076;SDS011;66003;52.286;104.306;2023-05-02T05:31:10;4.90;;;3.13;;
77076;SDS011;66003;52.286;104.306;2023-05-02T05:33:38;6.63;;;3.25;;
77076;SDS011;66003;52.286;104.306;2023-05-02T05:38:31;3.42;;;2.40;;
77076;SDS011;66003;52.286;104.306;2023-05-02T05:40:57;4.22;;;3.75;;
77076;SDS011;66003;52.286;104.306;2023-05-02T05:43:24;5.05;;;2.65;;
77076;SDS011;66003;52.286;104.306;2023-05-02T05:45:51;7.47;;;2.25;;
77076;SDS011;66003;52.286;104.306;2023-05-02T05:48:17;3.53;;;2.53;;
77076;SDS011;66003;52.286;104.306;2023-05-02T05:50:44;6.22;;;2.83;;
77076;SDS011;66003;52.286;104.306;2023-05-02T05:53:11;8.20;;;3.92;;
77076;SDS011;66003;52.286;104.306;2023-05-02T05:55:37;5.80;;;3.10;;
77076;SDS011;66003;52.286;104.306;2023-05-02T05:58:04;5.22;;;2.85;;
77076;SDS011;66003;52.286;104.306;2023-05-02T06:00:34;4.68;;;3.40;;
77076;SDS011;66003;52.286;104.306;2023-05-02T06:03:01;4.57;;;3.60;;
77076;SDS011;66003;52.286;104.306;2023-05-02T06:05:28;3.50;;;2.78;;
77076;SDS011;66003;52.286;104.306;2023-05-02T06:07:55;4.85;;;2.90;;
77076;SDS011;66003;52.286;104.306;2023-05-02T06:10:22;3.83;;;2.55;;
77076;SDS011;66003;52.286;104.306;2023-05-02T06:15:14;3.63;;;3.05;;
77076;SDS011;66003;52.286;104.306;2023-05-02T06:17:41;3.42;;;2.97;;
77076;SDS011;66003;52.286;104.306;2023-05-02T06:20:07;6.20;;;4.05;;
77076;SDS011;66003;52.286;104.306;2023-05-02T06:22:34;5.63;;;3.03;;
77076;SDS011;66003;52.286;104.306;2023-05-02T06:25:01;5.53;;;3.53;;
77076;SDS011;66003;52.286;104.306;2023-05-02T06:27:30;4.53;;;3.30;;
77076;SDS011;66003;52.286;104.306;2023-05-02T06:29:56;5.53;;;4.18;;
77076;SDS011;66003;52.286;104.306;2023-05-02T06:32:23;5.32;;;2.85;;
77076;SDS011;66003;52.286;104.306;2023-05-02T06:34:49;7.78;;;3.42;;
77076;SDS011;66003;52.286;104.306;2023-05-02T06:37:15;4.82;;;4.30;;
77076;SDS011;66003;52.286;104.306;2023-05-02T06:39:41;9.18;;;4.18;;
77076;SDS011;66003;52.286;104.306;2023-05-02T06:42:07;5.40;;;3.65;;
77076;SDS011;66003;52.286;104.306;2023-05-02T06:44:34;6.05;;;2.63;;
77076;SDS011;66003;52.286;104.306;2023-05-02T06:49:26;7.22;;;2.55;;
77076;SDS011;66003;52.286;104.306;2023-05-02T06:51:52;7.10;;;3.05;;
77076;SDS011;66003;52.286;104.306;2023-05-02T06:54:18;8.55;;;3.70;;
77076;SDS011;66003;52.286;104.306;2023-05-02T06:56:46;5.95;;;3.72;;
77076;SDS011;66003;52.286;104.306;2023-05-02T06:59:12;7.40;;;3.55;;
77076;SDS011;66003;52.286;104.306;2023-05-02T07:01:42;9.30;;;3.03;;
77076;SDS011;66003;52.286;104.306;2023-05-02T07:04:08;10.35;;;5.35;;
77076;SDS011;66003;52.286;104.306;2023-05-02T07:06:35;11.70;;;5.20;;
77076;SDS011;66003;52.286;104.306;2023-05-02T07:09:01;6.78;;;4.00;;
77076;SDS011;66003;52.286;104.306;2023-05-02T07:11:27;7.65;;;4.55;;
77076;SDS011;66003;52.286;104.306;2023-05-02T07:13:53;29.10;;;5.05;;
77076;SDS011;66003;52.286;104.306;2023-05-02T07:16:19;8.75;;;4.25;;
77076;SDS011;66003;52.286;104.306;2023-05-02T07:18:46;10.02;;;4.68;;
77076;SDS011;66003;52.286;104.306;2023-05-02T07:21:12;5.78;;;3.45;;
77076;SDS011;66003;52.286;104.306;2023-05-02T07:23:38;7.82;;;3.75;;
77076;SDS011;66003;52.286;104.306;2023-05-02T07:26:06;7.32;;;4.88;;
77076;SDS011;66003;52.286;104.306;2023-05-02T07:28:32;5.47;;;3.38;;
77076;SDS011;66003;52.286;104.306;2023-05-02T07:30:59;9.38;;;4.97;;
77076;SDS011;66003;52.286;104.306;2023-05-02T07:33:25;5.88;;;4.15;;
77076;SDS011;66003;52.286;104.306;2023-05-02T07:35:51;6.28;;;4.15;;
77076;SDS011;66003;52.286;104.306;2023-05-02T07:38:17;12.48;;;3.90;;
77076;SDS011;66003;52.286;104.306;2023-05-02T07:40:43;9.98;;;4.90;;
77076;SDS011;66003;52.286;104.306;2023-05-02T07:43:12;4.65;;;3.85;;
77076;SDS011;66003;52.286;104.306;2023-05-02T07:45:38;3.80;;;3.42;;
77076;SDS011;66003;52.286;104.306;2023-05-02T07:48:04;4.65;;;3.80;;
77076;SDS011;66003;52.286;104.306;2023-05-02T07:50:31;4.25;;;3.58;;
77076;SDS011;66003;52.286;104.306;2023-05-02T07:52:57;4.82;;;2.53;;
77076;SDS011;66003;52.286;104.306;2023-05-02T07:55:23;4.70;;;4.20;;
77076;SDS011;66003;52.286;104.306;2023-05-02T07:57:52;8.55;;;4.43;;
77076;SDS011;66003;52.286;104.306;2023-05-02T08:00:18;4.22;;;3.63;;
77076;SDS011;66003;52.286;104.306;2023-05-02T08:02:44;8.05;;;3.58;;
77076;SDS011;66003;52.286;104.306;2023-05-02T08:05:11;9.85;;;3.38;;
77076;SDS011;66003;52.286;104.306;2023-05-02T08:07:37;5.60;;;3.17;;
77076;SDS011;66003;52.286;104.306;2023-05-02T08:10:06;6.13;;;3.25;;
77076;SDS011;66003;52.286;104.306;2023-05-02T08:12:40;5.30;;;3.72;;
77076;SDS011;66003;52.286;104.306;2023-05-02T08:17:33;6.18;;;3.65;;
77076;SDS011;66003;52.286;104.306;2023-05-02T08:19:59;4.35;;;2.80;;
77076;SDS011;66003;52.286;104.306;2023-05-02T08:22:25;7.10;;;4.00;;
77076;SDS011;66003;52.286;104.306;2023-05-02T08:24:51;4.40;;;3.97;;
77076;SDS011;66003;52.286;104.306;2023-05-02T08:27:18;6.38;;;2.53;;
77076;SDS011;66003;52.286;104.306;2023-05-02T08:29:44;6.28;;;3.80;;
77076;SDS011;66003;52.286;104.306;2023-05-02T08:32:10;6.22;;;2.60;;
77076;SDS011;66003;52.286;104.306;2023-05-02T08:34:36;6.07;;;4.20;;
77076;SDS011;66003;52.286;104.306;2023-05-02T08:37:06;6.10;;;4.13;;
77076;SDS011;66003;52.286;104.306;2023-05-02T08:39:36;11.73;;;5.93;;
77076;SDS011;66003;52.286;104.306;2023-05-02T08:42:06;10.75;;;4.13;;
77076;SDS011;66003;52.286;104.306;2023-05-02T08:44:33;7.72;;;4.55;;
77076;SDS011;66003;52.286;104.306;2023-05-02T08:46:59;9.63;;;4.07;;
77076;SDS011;66003;52.286;104.306;2023-05-02T08:49:26;7.70;;;4.20;;
77076;SDS011;66003;52.286;104.306;2023-05-02T08:51:56;6.22;;;3.55;;
77076;SDS011;66003;52.286;104.306;2023-05-02T08:54:24;13.80;;;4.63;;
77076;SDS011;66003;52.286;104.306;2023-05-02T08:56:54;7.30;;;4.05;;
77076;SDS011;66003;52.286;104.306;2023-05-02T08:59:24;7.15;;;3.72;;
77076;SDS011;66003;52.286;104.306;2023-05-02T09:01:51;4.72;;;3.13;;
77076;SDS011;66003;52.286;104.306;2023-05-02T09:04:27;9.73;;;3.67;;
77076;SDS011;66003;52.286;104.306;2023-05-02T09:07:00;9.90;;;3.58;;
77076;SDS011;66003;52.286;104.306;2023-05-02T09:09:26;9.25;;;4.07;;
77076;SDS011;66003;52.286;104.306;2023-05-02T09:11:53;7.55;;;3.45;;
77076;SDS011;66003;52.286;104.306;2023-05-02T09:14:19;7.13;;;3.35;;
77076;SDS011;66003;52.286;104.306;2023-05-02T09:16:45;11.32;;;3.60;;
77076;SDS011;66003;52.286;104.306;2023-05-02T09:19:12;8.65;;;3.75;;
77076;SDS011;66003;52.286;104.306;2023-05-02T09:21:51;6.38;;;5.35;;
77076;SDS011;66003;52.286;104.306;2023-05-02T09:24:23;8.02;;;3.58;;
77076;SDS011;66003;52.286;104.306;2023-05-02T09:27:03;6.28;;;3.22;;
77076;SDS011;66003;52.286;104.306;2023-05-02T09:29:31;7.57;;;5.13;;
77076;SDS011;66003;52.286;104.306;2023-05-02T09:32:02;5.30;;;3.63;;
77076;SDS011;66003;52.286;104.306;2023-05-02T09:34:30;4.07;;;3.63;;
77076;SDS011;66003;52.286;104.306;2023-05-02T09:36:57;7.07;;;3.97;;
77076;SDS011;66003;52.286;104.306;2023-05-02T09:39:27;7.07;;;3.88;;
77076;SDS011;66003;52.286;104.306;2023-05-02T09:41:54;6.22;;;4.15;;
77076;SDS011;66003;52.286;104.306;2023-05-02T09:46:48;7.68;;;4.38;;
77076;SDS011;66003;52.286;104.306;2023-05-02T09:49:24;5.47;;;3.10;;
77076;SDS011;66003;52.286;104.306;2023-05-02T09:52:14;3.85;;;2.75;;
77076;SDS011;66003;52.286;104.306;2023-05-02T09:54:42;5.28;;;4.13;;
77076;SDS011;66003;52.286;104.306;2023-05-02T09:57:08;4.38;;;3.83;;
77076;SDS011;66003;52.286;104.306;2023-05-02T09:59:35;13.63;;;4.28;;
77076;SDS011;66003;52.286;104.306;2023-05-02T10:02:02;8.65;;;4.68;;
77076;SDS011;66003;52.286;104.306;2023-05-02T10:04:30;9.30;;;3.75;;
77076;SDS011;66003;52.286;104.306;2023-05-02T10:06:58;5.40;;;3.53;;
77076;SDS011;66003;52.286;104.306;2023-05-02T10:09:25;5.05;;;3.60;;
77076;SDS011;66003;52.286;104.306;2023-05-02T10:11:54;6.38;;;3.55;;
77076;SDS011;66003;52.286;104.306;2023-05-02T10:14:21;5.63;;;3.50;;
77076;SDS011;66003;52.286;104.306;2023-05-02T10:19:23;9.85;;;3.75;;
77076;SDS011;66003;52.286;104.306;2023-05-02T10:21:53;6.50;;;3.80;;
77076;SDS011;66003;52.286;104.306;2023-05-02T10:24:21;6.13;;;3.70;;
77076;SDS011;66003;52.286;104.306;2023-05-02T10:26:48;4.70;;;4.07;;
77076;SDS011;66003;52.286;104.306;2023-05-02T10:29:16;8.30;;;4.13;;
77076;SDS011;66003;52.286;104.306;2023-05-02T10:31:42;8.15;;;3.53;;
77076;SDS011;66003;52.286;104.306;2023-05-02T10:34:10;6.40;;;5.22;;
77076;SDS011;66003;52.286;104.306;2023-05-02T10:36:37;6.03;;;3.10;;
77076;SDS011;66003;52.286;104.306;2023-05-02T10:39:03;6.22;;;3.97;;
77076;SDS011;66003;52.286;104.306;2023-05-02T10:41:32;13.80;;;4.95;;
77076;SDS011;66003;52.286;104.306;2023-05-02T10:44:00;11.45;;;5.25;;
77076;SDS011;66003;52.286;104.306;2023-05-02T10:46:37;6.65;;;4.55;;
77076;SDS011;66003;52.286;104.306;2023-05-02T10:49:08;5.70;;;4.20;;
77076;SDS011;66003;52.286;104.306;2023-05-02T10:51:37;8.45;;;3.53;;
77076;SDS011;66003;52.286;104.306;2023-05-02T10:59:34;5.30;;;3.38;;
77076;SDS011;66003;52.286;104.306;2023-05-02T11:02:03;5.05;;;3.47;;
77076;SDS011;66003;52.286;104.306;2023-05-02T11:07:36;4.78;;;4.20;;
77076;SDS011;66003;52.286;104.306;2023-05-02T11:12:55;8.50;;;4.60;;
77076;SDS011;66003;52.286;104.306;2023-05-02T11:18:00;7.03;;;4.40;;
77076;SDS011;66003;52.286;104.306;2023-05-02T11:20:32;9.82;;;4.00;;
77076;SDS011;66003;52.286;104.306;2023-05-02T11:23:21;11.80;;;3.63;;
77076;SDS011;66003;52.286;104.306;2023-05-02T11:25:54;5.32;;;4.88;;
77076;SDS011;66003;52.286;104.306;2023-05-02T11:30:59;5.10;;;3.78;;
77076;SDS011;66003;52.286;104.306;2023-05-02T11:33:26;5.55;;;3.90;;
77076;SDS011;66003;52.286;104.306;2023-05-02T11:35:53;6.97;;;5.18;;
77076;SDS011;66003;52.286;104.306;2023-05-02T11:38:21;12.75;;;5.30;;
77076;SDS011;66003;52.286;104.306;2023-05-02T11:40:55;14.25;;;6.18;;
77076;SDS011;66003;52.286;104.306;2023-05-02T11:43:23;10.68;;;5.10;;
77076;SDS011;66003;52.286;104.306;2023-05-02T11:45:51;10.50;;;3.33;;
77076;SDS011;66003;52.286;104.306;2023-05-02T11:48:19;8.77;;;4.05;;
77076;SDS011;66003;52.286;104.306;2023-05-02T11:50:48;6.35;;;4.93;;
77076;SDS011;66003;52.286;104.306;2023-05-02T11:53:19;10.02;;;2.90;;
77076;SDS011;66003;52.286;104.306;2023-05-02T11:55:53;10.80;;;4.07;;
77076;SDS011;66003;52.286;104.306;2023-05-02T11:58:23;9.30;;;3.95;;
77076;SDS011;66003;52.286;104.306;2023-05-02T12:00:51;8.80;;;4.43;;
77076;SDS011;66003;52.286;104.306;2023-05-02T12:03:39;7.95;;;4.68;;
77076;SDS011;66003;52.286;104.306;2023-05-02T12:06:09;16.33;;;5.20;;
77076;SDS011;66003;52.286;104.306;2023-05-02T12:08:41;13.82;;;5.25;;
77076;SDS011;66003;52.286;104.306;2023-05-02T12:11:08;8.48;;;5.88;;
77076;SDS011;66003;52.286;104.306;2023-05-02T12:13:43;8.90;;;5.30;;
77076;SDS011;66003;52.286;104.306;2023-05-02T12:16:14;9.88;;;4.70;;
77076;SDS011;66003;52.286;104.306;2023-05-02T12:18:42;15.23;;;6.05;;
77076;SDS011;66003;52.286;104.306;2023-05-02T12:21:08;15.23;;;5.45;;
77076;SDS011;66003;52.286;104.306;2023-05-02T12:23:35;13.63;;;7.38;;
77076;SDS011;66003;52.286;104.306;2023-05-02T12:26:14;7.88;;;5.68;;
77076;SDS011;66003;52.286;104.306;2023-05-02T12:28:48;11.57;;;5.93;;
77076;SDS011;66003;52.286;104.306;2023-05-02T12:31:19;15.52;;;6.28;;
77076;SDS011;66003;52.286;104.306;2023-05-02T12:36:12;10.52;;;5.15;;
77076;SDS011;66003;52.286;104.306;2023-05-02T12:38:39;7.88;;;5.28;;
77076;SDS011;66003;52.286;104.306;2023-05-02T12:41:05;11.43;;;6.25;;
77076;SDS011;66003;52.286;104.306;2023-05-02T12:43:46;17.75;;;7.28;;
77076;SDS011;66003;52.286;104.306;2023-05-02T12:46:13;11.00;;;6.38;;
77076;SDS011;66003;52.286;104.306;2023-05-02T12:48:40;13.98;;;7.55;;
77076;SDS011;66003;52.286;104.306;2023-05-02T12:51:19;16.17;;;7.50;;
77076;SDS011;66003;52.286;104.306;2023-05-02T12:53:47;14.27;;;8.30;;
77076;SDS011;66003;52.286;104.306;2023-05-02T12:56:14;19.23;;;9.43;;
77076;SDS011;66003;52.286;104.306;2023-05-02T12:58:41;25.90;;;10.20;;
77076;SDS011;66003;52.286;104.306;2023-05-02T13:01:09;24.02;;;9.52;;
77076;SDS011;66003;52.286;104.306;2023-05-02T13:03:36;32.15;;;11.05;;
77076;SDS011;66003;52.286;104.306;2023-05-02T13:08:29;22.00;;;8.80;;
77076;SDS011;66003;52.286;104.306;2023-05-02T13:10:55;16.73;;;8.63;;
77076;SDS011;66003;52.286;104.306;2023-05-02T13:13:21;18.58;;;8.52;;
77076;SDS011;66003;52.286;104.306;2023-05-02T13:15:47;17.48;;;8.07;;
77076;SDS011;66003;52.286;104.306;2023-05-02T13:18:15;17.88;;;9.00;;
77076;SDS011;66003;52.286;104.306;2023-05-02T13:20:41;16.20;;;9.20;;
77076;SDS011;66003;52.286;104.306;2023-05-02T13:23:09;20.38;;;10.95;;
77076;SDS011;66003;52.286;104.306;2023-05-02T13:25:35;20.60;;;9.82;;
77076;SDS011;66003;52.286;104.306;2023-05-02T13:28:02;17.73;;;9.95;;
77076;SDS011;66003;52.286;104.306;2023-05-02T13:30:28;19.45;;;9.13;;
77076;SDS011;66003;52.286;104.306;2023-05-02T13:32:55;14.70;;;7.80;;
77076;SDS011;66003;52.286;104.306;2023-05-02T13:35:23;19.33;;;8.82;;
77076;SDS011;66003;52.286;104.306;2023-05-02T13:37:50;19.70;;;9.45;;
77076;SDS011;66003;52.286;104.306;2023-05-02T13:40:17;15.27;;;8.38;;
77076;SDS011;66003;52.286;104.306;2023-05-02T13:42:43;14.80;;;8.98;;
77076;SDS011;66003;52.286;104.306;2023-05-02T13:45:10;16.83;;;10.27;;
77076;SDS011;66003;52.286;104.306;2023-05-02T13:47:36;15.50;;;8.70;;
77076;SDS011;66003;52.286;104.306;2023-05-02T13:50:03;12.75;;;8.52;;
77076;SDS011;66003;52.286;104.306;2023-05-02T13:52:30;15.85;;;8.73;;
77076;SDS011;66003;52.286;104.306;2023-05-02T13:54:56;20.52;;;10.52;;
77076;SDS011;66003;52.286;104.306;2023-05-02T13:57:22;17.58;;;9.30;;
77076;SDS011;66003;52.286;104.306;2023-05-02T13:59:49;17.63;;;8.85;;
77076;SDS011;66003;52.286;104.306;2023-05-02T14:02:16;29.58;;;10.93;;
77076;SDS011;66003;52.286;104.306;2023-05-02T14:04:42;20.83;;;9.80;;
77076;SDS011;66003;52.286;104.306;2023-05-02T14:07:08;20.67;;;8.98;;
77076;SDS011;66003;52.286;104.306;2023-05-02T14:09:35;24.85;;;10.18;;
77076;SDS011;66003;52.286;104.306;2023-05-02T14:12:02;21.23;;;9.38;;
77076;SDS011;66003;52.286;104.306;2023-05-02T14:16:55;24.92;;;10.05;;
77076;SDS011;66003;52.286;104.306;2023-05-02T14:19:21;21.33;;;10.57;;
77076;SDS011;66003;52.286;104.306;2023-05-02T14:21:47;19.08;;;10.38;;
77076;SDS011;66003;52.286;104.306;2023-05-02T14:24:14;22.60;;;8.93;;
77076;SDS011;66003;52.286;104.306;2023-05-02T14:26:40;21.90;;;9.65;;
77076;SDS011;66003;52.286;104.306;2023-05-02T14:29:07;19.80;;;9.70;;
77076;SDS011;66003;52.286;104.306;2023-05-02T14:31:33;26.05;;;10.82;;
77076;SDS011;66003;52.286;104.306;2023-05-02T14:34:00;28.45;;;12.20;;
77076;SDS011;66003;52.286;104.306;2023-05-02T14:36:26;26.60;;;12.00;;
77076;SDS011;66003;52.286;104.306;2023-05-02T14:38:52;27.17;;;12.45;;
77076;SDS011;66003;52.286;104.306;2023-05-02T14:41:18;25.70;;;10.23;;
77076;SDS011;66003;52.286;104.306;2023-05-02T14:43:46;22.55;;;10.85;;
77076;SDS011;66003;52.286;104.306;2023-05-02T14:46:12;26.13;;;12.15;;
77076;SDS011;66003;52.286;104.306;2023-05-02T14:48:38;28.05;;;12.20;;
77076;SDS011;66003;52.286;104.306;2023-05-02T14:51:04;25.13;;;10.93;;
77076;SDS011;66003;52.286;104.306;2023-05-02T14:53:31;27.85;;;11.43;;
77076;SDS011;66003;52.286;104.306;2023-05-02T14:55:57;29.48;;;12.35;;
77076;SDS011;66003;52.286;104.306;2023-05-02T14:58:24;36.20;;;14.20;;
77076;SDS011;66003;52.286;104.306;2023-05-02T15:00:51;21.98;;;11.07;;
77076;SDS011;66003;52.286;104.306;2023-05-02T15:03:18;27.80;;;13.15;;
77076;SDS011;66003;52.286;104.306;2023-05-02T15:05:46;34.40;;;12.60;;
77076;SDS011;66003;52.286;104.306;2023-05-02T15:08:12;34.38;;;12.75;;
77076;SDS011;66003;52.286;104.306;2023-05-02T15:10:38;36.53;;;14.68;;
77076;SDS011;66003;52.286;104.306;2023-05-02T15:13:04;26.80;;;15.23;;
77076;SDS011;66003;52.286;104.306;2023-05-02T15:15:31;45.05;;;17.05;;
77076;SDS011;66003;52.286;104.306;2023-05-02T15:17:58;38.47;;;17.02;;
77076;SDS011;66003;52.286;104.306;2023-05-02T15:20:24;43.63;;;20.75;;
77076;SDS011;66003;52.286;104.306;2023-05-02T15:22:50;44.05;;;19.27;;
77076;SDS011;66003;52.286;104.306;2023-05-02T15:25:16;34.35;;;16.35;;
77076;SDS011;66003;52.286;104.306;2023-05-02T15:27:42;34.70;;;17.35;;
77076;SDS011;66003;52.286;104.306;2023-05-02T15:30:09;35.70;;;16.20;;
77076;SDS011;66003;52.286;104.306;2023-05-02T15:32:35;38.05;;;18.30;;
77076;SDS011;66003;52.286;104.306;2023-05-02T15:35:02;45.05;;;21.20;;
77076;SDS011;66003;52.286;104.306;2023-05-02T15:37:32;37.17;;;16.92;;
77076;SDS011;66003;52.286;104.306;2023-05-02T15:39:58;35.40;;;19.08;;
77076;SDS011;66003;52.286;104.306;2023-05-02T15:42:25;41.30;;;21.13;;
77076;SDS011;66003;52.286;104.306;2023-05-02T15:44:51;43.08;;;21.20;;
77076;SDS011;66003;52.286;104.306;2023-05-02T15:47:18;42.95;;;21.08;;